sensor_id;sensor_type;location;lat;lon;timestamp;pressure;altitude;pressure_sealevel;temperature;humidity
61026;BME280;46911;32.650;-16.902;2023-09-18T00:01:10;101771.56;;;21.36;54.89
61026;BME280;46911;32.650;-16.902;2023-09-18T00:03:11;101779.84;;;21.34;55.30
61026;BME280;46911;32.650;-16.902;2023-09-18T00:05:14;101789.25;;;21.40;55.63
61026;BME280;46911;32.650;-16.902;2023-09-18T00:07:18;101773.44;;;21.26;55.25
61026;BME280;46911;32.650;-16.902;2023-09-18T00:09:19;101782.47;;;21.26;55.78
61026;BME280;46911;32.650;-16.902;2023-09-18T00:11:23;101783.91;;;21.20;55.89
61026;BME280;46911;32.650;-16.902;2023-09-18T00:13:24;101778.09;;;21.15;55.53
61026;BME280;46911;32.650;-16.902;2023-09-18T00:15:24;101775.38;;;21.05;55.76
61026;BME280;46911;32.650;-16.902;2023-09-18T00:17:31;101790.50;;;21.08;56.26
61026;BME280;46911;32.650;-16.902;2023-09-18T00:19:34;101779.81;;;21.06;56.30
61026;BME280;46911;32.650;-16.902;2023-09-18T00:21:35;101772.25;;;21.00;56.47
61026;BME280;46911;32.650;-16.902;2023-09-18T00:23:39;101750.91;;;20.87;56.50
61026;BME280;46911;32.650;-16.902;2023-09-18T00:25:40;101768.28;;;20.95;56.57
61026;BME280;46911;32.650;-16.902;2023-09-18T00:27:43;101768.00;;;20.88;56.67
61026;BME280;46911;32.650;-16.902;2023-09-18T00:29:44;101767.44;;;20.84;56.76
61026;BME280;46911;32.650;-16.902;2023-09-18T00:31:45;101767.16;;;20.78;56.83
61026;BME280;46911;32.650;-16.902;2023-09-18T00:33:49;101777.03;;;20.79;56.81
61026;BME280;46911;32.650;-16.902;2023-09-18T00:35:51;101761.88;;;20.66;56.89
61026;BME280;46911;32.650;-16.902;2023-09-18T00:37:54;101772.59;;;20.68;57.43
61026;BME280;46911;32.650;-16.902;2023-09-18T00:39:56;101761.31;;;20.63;57.57
61026;BME280;46911;32.650;-16.902;2023-09-18T00:41:57;101775.44;;;20.66;57.66
61026;BME280;46911;32.650;-16.902;2023-09-18T00:43:59;101773.03;;;20.63;57.78
61026;BME280;46911;32.650;-16.902;2023-09-18T00:46:02;101763.34;;;20.70;57.50
61026;BME280;46911;32.650;-16.902;2023-09-18T00:48:06;101759.03;;;20.68;57.45
61026;BME280;46911;32.650;-16.902;2023-09-18T00:50:08;101750.31;;;20.64;57.46
61026;BME280;46911;32.650;-16.902;2023-09-18T00:52:11;101754.44;;;20.68;57.51
61026;BME280;46911;32.650;-16.902;2023-09-18T00:54:15;101756.31;;;20.68;57.51
61026;BME280;46911;32.650;-16.902;2023-09-18T00:56:18;101756.94;;;20.71;57.36
61026;BME280;46911;32.650;-16.902;2023-09-18T00:58:21;101758.34;;;20.76;57.64
61026;BME280;46911;32.650;-16.902;2023-09-18T01:00:24;101746.91;;;20.72;57.17
61026;BME280;46911;32.650;-16.902;2023-09-18T01:02:26;101754.75;;;20.75;57.24
61026;BME280;46911;32.650;-16.902;2023-09-18T01:04:28;101742.38;;;20.72;57.09
61026;BME280;46911;32.650;-16.902;2023-09-18T01:06:30;101729.78;;;20.62;57.17
61026;BME280;46911;32.650;-16.902;2023-09-18T01:08:34;101711.97;;;20.59;56.87
61026;BME280;46911;32.650;-16.902;2023-09-18T01:13:14;101737.78;;;20.73;56.31
61026;BME280;46911;32.650;-16.902;2023-09-18T01:15:22;101720.94;;;20.60;56.15
61026;BME280;46911;32.650;-16.902;2023-09-18T01:17:27;101722.41;;;20.54;56.24
61026;BME280;46911;32.650;-16.902;2023-09-18T01:21:39;101707.88;;;20.35;56.85
61026;BME280;46911;32.650;-16.902;2023-09-18T01:23:40;101713.56;;;20.42;57.04
61026;BME280;46911;32.650;-16.902;2023-09-18T01:25:43;101723.97;;;20.47;56.94
61026;BME280;46911;32.650;-16.902;2023-09-18T01:27:44;101729.69;;;20.44;57.36
61026;BME280;46911;32.650;-16.902;2023-09-18T01:29:47;101713.28;;;20.35;57.36
61026;BME280;46911;32.650;-16.902;2023-09-18T01:31:53;101692.47;;;20.26;57.67
61026;BME280;46911;32.650;-16.902;2023-09-18T01:33:55;101724.41;;;20.42;57.84
61026;BME280;46911;32.650;-16.902;2023-09-18T01:35:57;101725.56;;;20.39;57.72
61026;BME280;46911;32.650;-16.902;2023-09-18T01:38:03;101717.72;;;20.36;58.08
61026;BME280;46911;32.650;-16.902;2023-09-18T01:40:07;101720.69;;;20.33;58.21
61026;BME280;46911;32.650;-16.902;2023-09-18T01:42:14;101713.00;;;20.38;58.17
61026;BME280;46911;32.650;-16.902;2023-09-18T01:44:15;101710.00;;;20.32;57.96
61026;BME280;46911;32.650;-16.902;2023-09-18T01:46:23;101716.16;;;20.34;58.08
61026;BME280;46911;32.650;-16.902;2023-09-18T01:48:24;101717.00;;;20.34;57.91
61026;BME280;46911;32.650;-16.902;2023-09-18T01:50:25;101685.34;;;20.25;58.07
61026;BME280;46911;32.650;-16.902;2023-09-18T01:52:26;101704.75;;;20.30;58.47
61026;BME280;46911;32.650;-16.902;2023-09-18T01:54:30;101708.00;;;20.24;57.99
61026;BME280;46911;32.650;-16.902;2023-09-18T01:56:33;101716.44;;;20.21;57.87
61026;BME280;46911;32.650;-16.902;2023-09-18T01:58:34;101706.31;;;20.23;57.81
61026;BME280;46911;32.650;-16.902;2023-09-18T02:00:35;101694.19;;;20.17;57.27
61026;BME280;46911;32.650;-16.902;2023-09-18T02:02:36;101690.91;;;20.23;56.94
61026;BME280;46911;32.650;-16.902;2023-09-18T02:04:37;101688.47;;;20.30;56.59
61026;BME280;46911;32.650;-16.902;2023-09-18T02:06:41;101686.19;;;20.35;56.53
61026;BME280;46911;32.650;-16.902;2023-09-18T02:08:42;101673.78;;;20.33;56.45
61026;BME280;46911;32.650;-16.902;2023-09-18T02:10:43;101670.09;;;20.34;55.90
61026;BME280;46911;32.650;-16.902;2023-09-18T02:12:44;101667.06;;;20.37;56.13
61026;BME280;46911;32.650;-16.902;2023-09-18T02:14:45;101671.47;;;20.48;55.59
61026;BME280;46911;32.650;-16.902;2023-09-18T02:16:48;101669.50;;;20.50;55.28
61026;BME280;46911;32.650;-16.902;2023-09-18T02:18:54;101663.31;;;20.57;55.03
61026;BME280;46911;32.650;-16.902;2023-09-18T02:20:58;101663.88;;;20.61;55.14
61026;BME280;46911;32.650;-16.902;2023-09-18T02:22:59;101663.59;;;20.74;54.79
61026;BME280;46911;32.650;-16.902;2023-09-18T02:25:02;101662.72;;;20.73;54.84
61026;BME280;46911;32.650;-16.902;2023-09-18T02:27:06;101661.03;;;20.72;55.13
61026;BME280;46911;32.650;-16.902;2023-09-18T02:29:08;101653.03;;;20.61;55.16
61026;BME280;46911;32.650;-16.902;2023-09-18T02:31:17;101650.22;;;20.53;55.86
61026;BME280;46911;32.650;-16.902;2023-09-18T02:33:18;101642.66;;;20.47;55.91
61026;BME280;46911;32.650;-16.902;2023-09-18T02:35:19;101651.09;;;20.44;56.30
61026;BME280;46911;32.650;-16.902;2023-09-18T02:37:20;101640.72;;;20.29;56.70
61026;BME280;46911;32.650;-16.902;2023-09-18T02:39:23;101657.69;;;20.31;57.02
61026;BME280;46911;32.650;-16.902;2023-09-18T02:41:25;101642.56;;;20.19;57.20
61026;BME280;46911;32.650;-16.902;2023-09-18T02:43:28;101652.25;;;20.21;57.04
61026;BME280;46911;32.650;-16.902;2023-09-18T02:45:29;101636.88;;;20.12;57.16
61026;BME280;46911;32.650;-16.902;2023-09-18T02:47:30;101642.88;;;20.16;57.27
61026;BME280;46911;32.650;-16.902;2023-09-18T02:49:34;101645.72;;;20.14;57.12
61026;BME280;46911;32.650;-16.902;2023-09-18T02:51:35;101642.75;;;20.07;57.26
61026;BME280;46911;32.650;-16.902;2023-09-18T02:53:39;101643.28;;;20.21;57.38
61026;BME280;46911;32.650;-16.902;2023-09-18T02:55:40;101629.47;;;20.14;57.09
61026;BME280;46911;32.650;-16.902;2023-09-18T02:57:44;101620.09;;;20.09;57.05
61026;BME280;46911;32.650;-16.902;2023-09-18T02:59:45;101639.47;;;20.14;57.17
61026;BME280;46911;32.650;-16.902;2023-09-18T03:01:53;101628.63;;;20.04;57.10
61026;BME280;46911;32.650;-16.902;2023-09-18T03:03:56;101642.44;;;20.11;57.20
61026;BME280;46911;32.650;-16.902;2023-09-18T03:06:04;101633.31;;;20.12;56.75
61026;BME280;46911;32.650;-16.902;2023-09-18T03:08:09;101626.22;;;20.01;56.98
61026;BME280;46911;32.650;-16.902;2023-09-18T03:10:14;101604.28;;;19.84;56.94
61026;BME280;46911;32.650;-16.902;2023-09-18T03:12:16;101636.47;;;19.97;56.91
61026;BME280;46911;32.650;-16.902;2023-09-18T03:14:19;101626.78;;;19.85;56.90
61026;BME280;46911;32.650;-16.902;2023-09-18T03:16:20;101617.38;;;19.79;56.70
61026;BME280;46911;32.650;-16.902;2023-09-18T03:18:22;101622.78;;;19.79;56.97
61026;BME280;46911;32.650;-16.902;2023-09-18T03:20:23;101628.34;;;19.78;56.83
61026;BME280;46911;32.650;-16.902;2023-09-18T03:22:25;101620.63;;;19.73;57.06
61026;BME280;46911;32.650;-16.902;2023-09-18T03:24:27;101612.66;;;19.71;57.07
61026;BME280;46911;32.650;-16.902;2023-09-18T03:26:28;101613.22;;;19.65;57.11
61026;BME280;46911;32.650;-16.902;2023-09-18T03:28:29;101623.19;;;19.65;57.45
61026;BME280;46911;32.650;-16.902;2023-09-18T03:30:34;101610.38;;;19.57;57.73
61026;BME280;46911;32.650;-16.902;2023-09-18T03:32:37;101627.78;;;19.64;58.06
61026;BME280;46911;32.650;-16.902;2023-09-18T03:34:38;101630.47;;;19.64;57.08
61026;BME280;46911;32.650;-16.902;2023-09-18T03:36:39;101619.50;;;19.66;56.08
61026;BME280;46911;32.650;-16.902;2023-09-18T03:38:40;101612.09;;;19.58;56.08
61026;BME280;46911;32.650;-16.902;2023-09-18T03:40:45;101608.78;;;19.54;55.67
61026;BME280;46911;32.650;-16.902;2023-09-18T03:42:49;101608.94;;;19.53;55.25
61026;BME280;46911;32.650;-16.902;2023-09-18T03:44:50;101614.34;;;19.63;54.42
61026;BME280;46911;32.650;-16.902;2023-09-18T03:46:56;101603.81;;;19.50;54.14
61026;BME280;46911;32.650;-16.902;2023-09-18T03:48:57;101617.78;;;19.55;54.17
61026;BME280;46911;32.650;-16.902;2023-09-18T03:50:58;101617.91;;;19.53;53.52
61026;BME280;46911;32.650;-16.902;2023-09-18T03:52:59;101612.94;;;19.58;53.52
61026;BME280;46911;32.650;-16.902;2023-09-18T03:55:03;101616.06;;;19.54;53.45
61026;BME280;46911;32.650;-16.902;2023-09-18T03:57:05;101602.25;;;19.47;53.88
61026;BME280;46911;32.650;-16.902;2023-09-18T03:59:13;101615.50;;;19.50;53.92
61026;BME280;46911;32.650;-16.902;2023-09-18T04:01:16;101620.75;;;19.52;54.27
61026;BME280;46911;32.650;-16.902;2023-09-18T04:03:20;101610.91;;;19.41;54.76
61026;BME280;46911;32.650;-16.902;2023-09-18T04:05:21;101609.09;;;19.42;55.08
61026;BME280;46911;32.650;-16.902;2023-09-18T04:07:27;101609.78;;;19.44;55.03
61026;BME280;46911;32.650;-16.902;2023-09-18T04:09:31;101612.19;;;19.47;55.44
61026;BME280;46911;32.650;-16.902;2023-09-18T04:11:34;101608.34;;;19.39;55.92
61026;BME280;46911;32.650;-16.902;2023-09-18T04:13:35;101613.78;;;19.39;56.34
61026;BME280;46911;32.650;-16.902;2023-09-18T04:15:40;101618.34;;;19.39;56.64
61026;BME280;46911;32.650;-16.902;2023-09-18T04:17:41;101624.00;;;19.36;57.03
61026;BME280;46911;32.650;-16.902;2023-09-18T04:19:43;101620.75;;;19.32;57.93
61026;BME280;46911;32.650;-16.902;2023-09-18T04:21:47;101620.47;;;19.35;58.09
61026;BME280;46911;32.650;-16.902;2023-09-18T04:23:53;101615.19;;;19.34;58.35
61026;BME280;46911;32.650;-16.902;2023-09-18T04:25:58;101622.31;;;19.35;58.70
61026;BME280;46911;32.650;-16.902;2023-09-18T04:27:58;101616.19;;;19.33;58.93
61026;BME280;46911;32.650;-16.902;2023-09-18T04:30:00;101625.88;;;19.35;59.19
61026;BME280;46911;32.650;-16.902;2023-09-18T04:32:03;101606.78;;;19.27;59.44
61026;BME280;46911;32.650;-16.902;2023-09-18T04:34:05;101623.16;;;19.35;59.53
61026;BME280;46911;32.650;-16.902;2023-09-18T04:36:08;101612.63;;;19.32;60.01
61026;BME280;46911;32.650;-16.902;2023-09-18T04:38:10;101617.31;;;19.30;60.15
61026;BME280;46911;32.650;-16.902;2023-09-18T04:40:14;101623.31;;;19.34;60.24
61026;BME280;46911;32.650;-16.902;2023-09-18T04:42:17;101624.59;;;19.30;60.64
61026;BME280;46911;32.650;-16.902;2023-09-18T04:44:23;101630.84;;;19.30;60.85
61026;BME280;46911;32.650;-16.902;2023-09-18T04:46:24;101628.44;;;19.27;60.92
61026;BME280;46911;32.650;-16.902;2023-09-18T04:48:25;101625.44;;;19.30;60.85
61026;BME280;46911;32.650;-16.902;2023-09-18T04:50:26;101639.69;;;19.32;61.08
61026;BME280;46911;32.650;-16.902;2023-09-18T04:52:30;101645.53;;;19.37;61.12
61026;BME280;46911;32.650;-16.902;2023-09-18T04:54:31;101640.53;;;19.43;61.31
61026;BME280;46911;32.650;-16.902;2023-09-18T04:56:34;101616.31;;;19.31;61.17
61026;BME280;46911;32.650;-16.902;2023-09-18T04:58:35;101634.03;;;19.55;61.18
61026;BME280;46911;32.650;-16.902;2023-09-18T05:00:38;101644.72;;;19.66;60.88
61026;BME280;46911;32.650;-16.902;2023-09-18T05:02:41;101645.28;;;19.80;60.53
61026;BME280;46911;32.650;-16.902;2023-09-18T05:04:43;101645.19;;;19.91;60.25
61026;BME280;46911;32.650;-16.902;2023-09-18T05:06:44;101657.00;;;20.00;60.21
61026;BME280;46911;32.650;-16.902;2023-09-18T05:08:47;101648.88;;;20.10;59.54
61026;BME280;46911;32.650;-16.902;2023-09-18T05:10:50;101638.31;;;20.06;59.84
61026;BME280;46911;32.650;-16.902;2023-09-18T05:12:54;101635.03;;;20.13;59.37
61026;BME280;46911;32.650;-16.902;2023-09-18T05:14:59;101647.88;;;20.20;59.18
61026;BME280;46911;32.650;-16.902;2023-09-18T05:17:02;101620.09;;;20.09;59.08
61026;BME280;46911;32.650;-16.902;2023-09-18T05:19:06;101643.28;;;20.21;58.61
61026;BME280;46911;32.650;-16.902;2023-09-18T05:21:13;101653.41;;;20.29;58.89
61026;BME280;46911;32.650;-16.902;2023-09-18T05:23:18;101656.38;;;20.26;58.78
61026;BME280;46911;32.650;-16.902;2023-09-18T05:25:23;101659.25;;;20.24;59.15
61026;BME280;46911;32.650;-16.902;2023-09-18T05:27:25;101655.41;;;20.17;59.29
61026;BME280;46911;32.650;-16.902;2023-09-18T05:29:26;101666.25;;;20.17;59.35
61026;BME280;46911;32.650;-16.902;2023-09-18T05:31:27;101655.00;;;20.02;59.40
61026;BME280;46911;32.650;-16.902;2023-09-18T05:33:28;101668.69;;;20.00;60.04
61026;BME280;46911;32.650;-16.902;2023-09-18T05:35:29;101655.28;;;19.89;60.15
61026;BME280;46911;32.650;-16.902;2023-09-18T05:37:30;101668.13;;;19.87;59.92
61026;BME280;46911;32.650;-16.902;2023-09-18T05:39:31;101666.56;;;19.84;60.16
61026;BME280;46911;32.650;-16.902;2023-09-18T05:41:34;101671.78;;;19.76;60.40
61026;BME280;46911;32.650;-16.902;2023-09-18T05:43:37;101665.38;;;19.67;60.67
61026;BME280;46911;32.650;-16.902;2023-09-18T05:45:38;101656.38;;;19.57;60.76
61026;BME280;46911;32.650;-16.902;2023-09-18T05:47:42;101676.75;;;19.61;60.72
61026;BME280;46911;32.650;-16.902;2023-09-18T05:49:46;101672.47;;;19.58;60.93
61026;BME280;46911;32.650;-16.902;2023-09-18T05:51:47;101674.19;;;19.60;60.87
61026;BME280;46911;32.650;-16.902;2023-09-18T05:53:50;101667.19;;;19.47;60.91
61026;BME280;46911;32.650;-16.902;2023-09-18T05:55:51;101663.06;;;19.43;61.01
61026;BME280;46911;32.650;-16.902;2023-09-18T05:57:54;101667.34;;;19.46;60.93
61026;BME280;46911;32.650;-16.902;2023-09-18T05:59:58;101672.44;;;19.39;61.02
61026;BME280;46911;32.650;-16.902;2023-09-18T06:02:01;101669.31;;;19.34;60.97
61026;BME280;46911;32.650;-16.902;2023-09-18T06:04:05;101676.69;;;19.32;61.25
61026;BME280;46911;32.650;-16.902;2023-09-18T06:06:08;101675.56;;;19.34;60.65
61026;BME280;46911;32.650;-16.902;2023-09-18T06:08:09;101682.38;;;19.29;60.41
61026;BME280;46911;32.650;-16.902;2023-09-18T06:10:12;101667.88;;;19.30;60.27
61026;BME280;46911;32.650;-16.902;2023-09-18T06:12:14;101680.13;;;19.34;59.78
61026;BME280;46911;32.650;-16.902;2023-09-18T06:14:15;101663.28;;;19.20;58.92
61026;BME280;46911;32.650;-16.902;2023-09-18T06:16:16;101686.34;;;19.24;58.83
61026;BME280;46911;32.650;-16.902;2023-09-18T06:18:20;101683.06;;;19.21;58.56
61026;BME280;46911;32.650;-16.902;2023-09-18T06:20:21;101694.03;;;19.19;58.86
61026;BME280;46911;32.650;-16.902;2023-09-18T06:22:22;101688.31;;;19.22;58.31
61026;BME280;46911;32.650;-16.902;2023-09-18T06:24:26;101685.06;;;19.19;58.47
61026;BME280;46911;32.650;-16.902;2023-09-18T06:26:27;101674.25;;;19.19;57.93
61026;BME280;46911;32.650;-16.902;2023-09-18T06:28:30;101691.19;;;19.21;57.77
61026;BME280;46911;32.650;-16.902;2023-09-18T06:30:34;101679.75;;;19.17;57.96
61026;BME280;46911;32.650;-16.902;2023-09-18T06:32:37;101699.88;;;19.24;58.06
61026;BME280;46911;32.650;-16.902;2023-09-18T06:34:38;101694.31;;;19.16;58.38
61026;BME280;46911;32.650;-16.902;2023-09-18T06:36:41;101702.28;;;19.18;58.95
61026;BME280;46911;32.650;-16.902;2023-09-18T06:38:44;101702.66;;;19.13;58.69
61026;BME280;46911;32.650;-16.902;2023-09-18T06:40:48;101701.69;;;19.14;59.05
61026;BME280;46911;32.650;-16.902;2023-09-18T06:42:58;101702.09;;;19.10;59.12
61026;BME280;46911;32.650;-16.902;2023-09-18T06:45:00;101696.69;;;19.10;58.93
61026;BME280;46911;32.650;-16.902;2023-09-18T06:47:02;101698.53;;;19.09;58.79
61026;BME280;46911;32.650;-16.902;2023-09-18T06:49:05;101700.38;;;19.09;59.01
61026;BME280;46911;32.650;-16.902;2023-09-18T06:51:06;101691.44;;;19.08;58.04
61026;BME280;46911;32.650;-16.902;2023-09-18T06:53:07;101703.13;;;19.18;57.91
61026;BME280;46911;32.650;-16.902;2023-09-18T06:55:09;101703.69;;;19.12;57.69
61026;BME280;46911;32.650;-16.902;2023-09-18T06:57:12;101705.38;;;19.13;57.52
61026;BME280;46911;32.650;-16.902;2023-09-18T06:59:13;101714.69;;;19.20;57.66
61026;BME280;46911;32.650;-16.902;2023-09-18T07:01:14;101717.63;;;19.17;57.71
61026;BME280;46911;32.650;-16.902;2023-09-18T07:03:16;101716.41;;;19.21;58.08
61026;BME280;46911;32.650;-16.902;2023-09-18T07:05:20;101723.34;;;19.24;58.59
61026;BME280;46911;32.650;-16.902;2023-09-18T07:07:21;101731.06;;;19.29;58.77
61026;BME280;46911;32.650;-16.902;2023-09-18T07:09:25;101729.06;;;19.31;58.96
61026;BME280;46911;32.650;-16.902;2023-09-18T07:11:26;101726.97;;;19.34;59.47
61026;BME280;46911;32.650;-16.902;2023-09-18T07:13:27;101726.56;;;19.39;59.33
61026;BME280;46911;32.650;-16.902;2023-09-18T07:15:28;101738.53;;;19.46;58.99
61026;BME280;46911;32.650;-16.902;2023-09-18T07:17:29;101728.56;;;19.47;58.61
61026;BME280;46911;32.650;-16.902;2023-09-18T07:19:31;101745.41;;;19.60;57.48
61026;BME280;46911;32.650;-16.902;2023-09-18T07:21:34;101752.69;;;19.69;56.85
61026;BME280;46911;32.650;-16.902;2023-09-18T07:23:40;101743.50;;;19.82;55.46
61026;BME280;46911;32.650;-16.902;2023-09-18T07:25:41;101746.94;;;19.94;54.82
61026;BME280;46911;32.650;-16.902;2023-09-18T07:27:46;101752.66;;;20.10;53.79
61026;BME280;46911;32.650;-16.902;2023-09-18T07:29:55;101757.78;;;20.23;52.90
61026;BME280;46911;32.650;-16.902;2023-09-18T07:31:59;101765.34;;;20.29;52.55
61026;BME280;46911;32.650;-16.902;2023-09-18T07:34:02;101753.50;;;20.30;52.29
61026;BME280;46911;32.650;-16.902;2023-09-18T07:36:07;101757.78;;;20.43;52.32
61026;BME280;46911;32.650;-16.902;2023-09-18T07:38:08;101748.22;;;20.38;52.30
61026;BME280;46911;32.650;-16.902;2023-09-18T07:40:09;101763.31;;;20.51;53.01
61026;BME280;46911;32.650;-16.902;2023-09-18T07:42:10;101757.78;;;20.52;53.08
61026;BME280;46911;32.650;-16.902;2023-09-18T07:44:11;101761.75;;;20.58;53.46
61026;BME280;46911;32.650;-16.902;2023-09-18T07:46:12;101746.94;;;20.52;53.64
61026;BME280;46911;32.650;-16.902;2023-09-18T07:48:15;101767.63;;;20.63;54.59
61026;BME280;46911;32.650;-16.902;2023-09-18T07:50:20;101767.16;;;20.68;55.05
61026;BME280;46911;32.650;-16.902;2023-09-18T07:52:21;101764.59;;;20.66;55.56
61026;BME280;46911;32.650;-16.902;2023-09-18T07:54:22;101770.19;;;20.74;56.03
61026;BME280;46911;32.650;-16.902;2023-09-18T07:56:27;101770.59;;;20.80;56.11
61026;BME280;46911;32.650;-16.902;2023-09-18T07:58:31;101753.59;;;20.78;56.48
61026;BME280;46911;32.650;-16.902;2023-09-18T08:00:36;101743.06;;;20.74;56.87
61026;BME280;46911;32.650;-16.902;2023-09-18T08:02:39;101785.81;;;21.00;56.77
61026;BME280;46911;32.650;-16.902;2023-09-18T08:04:40;101782.69;;;21.05;56.44
61026;BME280;46911;32.650;-16.902;2023-09-18T08:06:41;101775.38;;;21.05;56.30
61026;BME280;46911;32.650;-16.902;2023-09-18T08:08:42;101771.78;;;21.15;56.23
61026;BME280;46911;32.650;-16.902;2023-09-18T08:10:43;101766.78;;;21.20;56.30
61026;BME280;46911;32.650;-16.902;2023-09-18T08:12:44;101766.47;;;21.23;55.93
61026;BME280;46911;32.650;-16.902;2023-09-18T08:14:45;101759.34;;;21.22;55.55
61026;BME280;46911;32.650;-16.902;2023-09-18T08:16:47;101760.75;;;21.26;55.56
61026;BME280;46911;32.650;-16.902;2023-09-18T08:18:53;101774.84;;;21.39;54.65
61026;BME280;46911;32.650;-16.902;2023-09-18T08:20:54;101783.25;;;21.46;54.42
61026;BME280;46911;32.650;-16.902;2023-09-18T08:22:58;101762.38;;;21.47;54.63
61026;BME280;46911;32.650;-16.902;2023-09-18T08:25:05;101792.00;;;21.68;54.67
61026;BME280;46911;32.650;-16.902;2023-09-18T08:27:08;101779.69;;;21.73;54.51
61026;BME280;46911;32.650;-16.902;2023-09-18T08:29:09;101795.88;;;21.93;54.76
61026;BME280;46911;32.650;-16.902;2023-09-18T08:31:12;101790.59;;;22.10;53.93
61026;BME280;46911;32.650;-16.902;2023-09-18T08:33:14;101793.50;;;22.26;53.25
61026;BME280;46911;32.650;-16.902;2023-09-18T08:35:15;101792.66;;;22.44;53.01
61026;BME280;46911;32.650;-16.902;2023-09-18T08:37:16;101791.41;;;22.56;52.56
61026;BME280;46911;32.650;-16.902;2023-09-18T08:39:17;101792.41;;;22.55;51.25
61026;BME280;46911;32.650;-16.902;2023-09-18T08:41:18;101783.47;;;22.45;51.07
61026;BME280;46911;32.650;-16.902;2023-09-18T08:43:21;101792.34;;;22.47;51.49
61026;BME280;46911;32.650;-16.902;2023-09-18T08:47:39;101788.56;;;22.39;52.46
61026;BME280;46911;32.650;-16.902;2023-09-18T08:49:41;101801.50;;;22.46;53.31
61026;BME280;46911;32.650;-16.902;2023-09-18T08:51:43;101769.66;;;22.38;53.33
61026;BME280;46911;32.650;-16.902;2023-09-18T08:53:45;101799.09;;;22.61;53.55
61026;BME280;46911;32.650;-16.902;2023-09-18T08:55:52;101802.75;;;22.51;53.14
61026;BME280;46911;32.650;-16.902;2023-09-18T08:57:58;101794.59;;;22.51;53.24
61026;BME280;46911;32.650;-16.902;2023-09-18T09:00:03;101802.06;;;22.49;53.56
61026;BME280;46911;32.650;-16.902;2023-09-18T09:02:10;101803.06;;;22.48;53.46
61026;BME280;46911;32.650;-16.902;2023-09-18T09:04:16;101795.28;;;22.35;54.28
61026;BME280;46911;32.650;-16.902;2023-09-18T09:06:19;101799.16;;;22.33;55.14
61026;BME280;46911;32.650;-16.902;2023-09-18T09:08:20;101809.44;;;22.39;56.33
61026;BME280;46911;32.650;-16.902;2023-09-18T09:10:21;101803.84;;;22.40;55.93
61026;BME280;46911;32.650;-16.902;2023-09-18T09:12:54;101830.56;;;22.63;55.94
61026;BME280;46911;32.650;-16.902;2023-09-18T09:15:04;101830.06;;;22.86;56.28
61026;BME280;46911;32.650;-16.902;2023-09-18T09:17:05;101827.59;;;23.01;55.87
61026;BME280;46911;32.650;-16.902;2023-09-18T09:19:07;101817.81;;;23.08;54.42
61026;BME280;46911;32.650;-16.902;2023-09-18T09:21:08;101827.97;;;23.24;53.18
61026;BME280;46911;32.650;-16.902;2023-09-18T09:23:12;101824.97;;;23.09;53.65
61026;BME280;46911;32.650;-16.902;2023-09-18T09:25:27;101835.75;;;23.45;53.19
61026;BME280;46911;32.650;-16.902;2023-09-18T09:27:44;101819.34;;;23.71;53.04
61026;BME280;46911;32.650;-16.902;2023-09-18T09:29:58;101828.69;;;24.03;52.20
61026;BME280;46911;32.650;-16.902;2023-09-18T09:32:18;101826.97;;;24.02;51.98
61026;BME280;46911;32.650;-16.902;2023-09-18T09:34:26;101834.31;;;24.02;52.35
61026;BME280;46911;32.650;-16.902;2023-09-18T09:36:32;101819.31;;;23.98;52.11
61026;BME280;46911;32.650;-16.902;2023-09-18T09:38:34;101836.84;;;24.03;52.20
61026;BME280;46911;32.650;-16.902;2023-09-18T09:40:38;101835.19;;;24.11;51.52
61026;BME280;46911;32.650;-16.902;2023-09-18T09:42:41;101852.56;;;24.10;51.89
61026;BME280;46911;32.650;-16.902;2023-09-18T09:44:42;101853.38;;;24.02;52.02
61026;BME280;46911;32.650;-16.902;2023-09-18T09:46:50;101848.84;;;23.76;52.15
61026;BME280;46911;32.650;-16.902;2023-09-18T09:49:04;101840.47;;;23.69;52.49
61026;BME280;46911;32.650;-16.902;2023-09-18T09:51:05;101854.44;;;23.74;52.59
61026;BME280;46911;32.650;-16.902;2023-09-18T09:53:06;101859.94;;;23.83;52.54
61026;BME280;46911;32.650;-16.902;2023-09-18T09:55:31;101866.53;;;23.72;51.88
61026;BME280;46911;32.650;-16.902;2023-09-18T09:57:47;101878.91;;;23.93;52.01
61026;BME280;46911;32.650;-16.902;2023-09-18T09:59:48;101876.75;;;24.13;51.90
61026;BME280;46911;32.650;-16.902;2023-09-18T10:01:49;101875.00;;;25.12;50.54
61026;BME280;46911;32.650;-16.902;2023-09-18T10:03:50;101873.53;;;26.14;48.03
61026;BME280;46911;32.650;-16.902;2023-09-18T10:05:52;101878.00;;;26.61;45.44
61026;BME280;46911;32.650;-16.902;2023-09-18T10:08:00;101876.59;;;27.27;44.78
61026;BME280;46911;32.650;-16.902;2023-09-18T10:10:05;101882.75;;;27.88;42.29
61026;BME280;46911;32.650;-16.902;2023-09-18T10:12:10;101883.72;;;27.96;41.78
61026;BME280;46911;32.650;-16.902;2023-09-18T10:14:18;101878.13;;;28.40;41.30
61026;BME280;46911;32.650;-16.902;2023-09-18T10:16:22;101894.25;;;28.65;40.56
61026;BME280;46911;32.650;-16.902;2023-09-18T10:18:27;101865.81;;;29.58;39.33
61026;BME280;46911;32.650;-16.902;2023-09-18T10:20:29;101891.63;;;30.94;37.16
61026;BME280;46911;32.650;-16.902;2023-09-18T10:22:35;101885.69;;;30.97;36.43
61026;BME280;46911;32.650;-16.902;2023-09-18T10:24:46;101890.59;;;30.82;36.66
61026;BME280;46911;32.650;-16.902;2023-09-18T10:26:57;101896.72;;;30.70;36.87
61026;BME280;46911;32.650;-16.902;2023-09-18T10:29:00;101888.66;;;31.29;35.68
61026;BME280;46911;32.650;-16.902;2023-09-18T10:31:07;101893.28;;;31.55;35.67
61026;BME280;46911;32.650;-16.902;2023-09-18T10:33:09;101893.31;;;31.49;34.64
61026;BME280;46911;32.650;-16.902;2023-09-18T10:35:12;101881.56;;;30.33;36.57